YYZ weather

Lester B. Pearson International Airport
Toronto, Ontario, Canada

Public forecast

Using degrees Celsius for public forecast. Weather courtesy of forecast.io.

METAR (pilot weather report)

Retrieved 2017/08/18 02:33 UTC (0 seconds ago):

CYYZ 180233Z 10004KT 6SM BR SCT003 OVC007 20/19 A2975 RMK SF3SC5 SLP075 DENSITY ALT 1500FT

TAF (pilot weather forecast)

Retrieved 2017/08/18 03:42 UTC (0 seconds ago):

TAF CYYZ 180238Z 1803/1906 11005KT P6SM SCT008 BKN012 OVC030 TEMPO 1803/1805 5SM BR BKN006 OVC012 FM180500 14006KT 3SM BR OVC005 TEMPO 1805/1808 6SM BR SCT005 OVC010 FM180800 20008KT P6SM BKN012 BKN050 TEMPO 1808/1811 5SM BR BKN006 OVC012 FM181200 21010KT P6SM SCT015 TEMPO 1812/1815 BKN012 FM181500 24015G25KT P6SM BKN020 FM182000 24015G25KT P6SM BKN025 BECMG 1823/1901 24012KT RMK NXT FCST BY 180600Z